Time;durP1;ratioP1;P1;durP2;ratioP2;P2;SDS_P1;SDS_P2;PMS_P1;PMS_P2;Temp;Humidity;BMP_temperature;BMP_pressure;BME280_temperature;BME280_humidity;BME280_pressure;Samples;Min_cycle;Max_cycle;Signal;HPM_P1;HPM_P2
2021/04/12 00:02:02;;;;;;;1.27;0.40;;;11.80;68.90;;;10.58;65.86;95754.03;4999284;28;20500;-71
2021/04/12 00:04:38;;;;;;;0.30;0.30;;;11.80;69.00;;;10.61;65.51;95758.88;4980520;28;20069;-71
2021/04/12 00:07:08;;;;;;;0.57;0.50;;;11.90;68.70;;;10.63;64.66;95756.88;4983765;28;20108;-71
2021/04/12 00:09:55;;;;;;;0.93;0.50;;;12.00;68.30;;;10.64;65.92;95753.25;4999289;28;20030;-71
2021/04/12 00:12:50;;;;;;;0.95;0.63;;;12.00;68.10;;;10.61;65.70;95749.16;4957288;28;20293;-71
2021/04/12 00:15:22;;;;;;;1.15;0.52;;;12.00;67.90;;;10.60;64.83;95749.38;4975152;28;20045;-70
2021/04/12 00:17:51;;;;;;;0.80;0.50;;;12.00;68.20;;;10.58;64.00;95757.47;4985731;28;20175;-70
2021/04/12 00:20:42;;;;;;;0.80;0.45;;;12.00;68.10;;;10.59;66.69;95747.75;4988006;28;20041;-70
2021/04/12 00:23:15;;;;;;;0.85;0.47;;;12.00;67.80;;;10.58;64.90;95748.75;4963032;28;20400;-70
2021/04/12 00:26:00;;;;;;;0.73;0.60;;;12.10;67.70;;;10.53;66.62;95744.09;4987192;28;20127;-70
2021/04/12 00:28:46;;;;;;;1.00;0.50;;;11.80;68.20;;;10.51;65.92;95742.69;4986542;28;20238;-70
2021/04/12 00:31:33;;;;;;;0.40;0.38;;;11.80;68.40;;;10.49;65.99;95757.84;4987459;28;20034;-71
2021/04/12 00:34:19;;;;;;;0.40;0.40;;;11.80;68.50;;;10.50;66.21;95759.47;4983948;28;20125;-70
2021/04/12 00:36:57;;;;;;;1.08;0.47;;;11.90;68.20;;;10.50;65.40;95757.66;4972761;28;20049;-70
2021/04/12 00:39:40;;;;;;;0.85;0.60;;;12.00;68.00;;;10.52;66.16;95781.13;4986300;28;20042;-70
2021/04/12 00:42:39;;;;;;;2.65;0.60;;;12.00;67.80;;;10.53;66.38;95764.31;4978224;28;20034;-70
2021/04/12 00:45:28;;;;;;;1.23;0.63;;;12.00;68.00;;;10.52;66.05;95763.50;4993400;28;20034;-71
2021/04/12 00:48:36;;;;;;;1.48;0.52;;;11.90;68.30;;;10.48;66.39;95758.84;4996592;28;20073;-71
2021/04/12 00:51:32;;;;;;;1.30;0.50;;;11.80;68.80;;;10.50;66.19;95762.09;4973683;28;20405;-70
2021/04/12 00:54:44;;;;;;;2.20;0.65;;;11.90;68.50;;;10.51;66.58;95775.03;5001663;28;20121;-70
2021/04/12 00:57:34;;;;;;;0.75;0.60;;;11.80;68.50;;;10.51;67.14;95768.97;5001967;28;20512;-71
2021/04/12 01:00:14;;;;;;;0.60;0.52;;;11.90;68.50;;;10.51;66.82;95777.69;5004787;28;20493;-70
2021/04/12 01:03:13;;;;;;;0.60;0.60;;;11.90;68.30;;;10.54;66.26;95771.22;4971259;28;20030;-69
2021/04/12 01:05:46;;;;;;;0.68;0.60;;;12.00;68.20;;;10.52;66.03;95773.22;5003464;28;20232;-71
2021/04/12 01:08:44;;;;;;;1.48;0.63;;;11.80;68.50;;;10.46;67.68;95774.03;5003535;28;20123;-70
2021/04/12 01:11:44;;;;;;;0.70;0.60;;;11.60;69.30;;;10.41;66.80;95767.53;5014235;28;20088;-71
2021/04/12 01:14:30;;;;;;;0.82;0.60;;;11.60;69.30;;;10.37;67.14;95776.78;4996645;28;20037;-71
2021/04/12 01:17:27;;;;;;;0.80;0.70;;;11.60;69.50;;;10.39;66.88;95769.53;4991136;28;20528;-71
2021/04/12 01:20:56;;;;;;;0.77;0.60;;;11.80;69.00;;;10.41;67.48;95775.41;4999044;28;20104;-71
2021/04/12 01:23:58;;;;;;;0.70;0.57;;;11.80;68.80;;;10.39;66.20;95774.78;5003690;28;20054;-70
2021/04/12 01:26:53;;;;;;;1.10;0.80;;;11.80;68.70;;;10.38;66.99;95773.16;4990550;28;20052;-70
2021/04/12 01:30:15;;;;;;;1.65;1.02;;;11.80;68.90;;;10.33;67.81;95780.81;5001108;28;22126;-71
2021/04/12 01:33:34;;;;;;;1.23;0.88;;;11.60;69.20;;;10.28;66.73;95777.97;5018037;28;20050;-70
2021/04/12 01:36:32;;;;;;;0.80;0.80;;;11.50;69.50;;;10.25;67.04;95781.00;4927824;28;20039;-70
2021/04/12 01:39:08;;;;;;;1.10;0.98;;;11.50;69.50;;;10.24;67.69;95782.00;4913168;29;20118;-70
2021/04/12 01:41:50;;;;;;;1.35;0.77;;;11.50;69.50;;;10.22;65.97;95777.94;4984893;28;20140;-70
2021/04/12 01:44:34;;;;;;;1.35;1.02;;;11.50;69.90;;;10.15;68.11;95772.59;5004068;28;20100;-70
2021/04/12 01:47:14;;;;;;;0.80;0.80;;;11.40;70.10;;;10.15;67.64;95772.59;4979978;28;20145;-71
2021/04/12 01:50:20;;;;;;;1.00;0.80;;;11.40;70.00;;;10.18;67.79;95781.91;4971732;28;20664;-70
2021/04/12 01:53:34;;;;;;;1.70;1.10;;;11.50;69.80;;;10.14;67.13;95773.59;5002496;28;20353;-70
2021/04/12 01:56:25;;;;;;;1.63;1.10;;;11.40;69.80;;;10.12;67.38;95778.25;4991007;28;20357;-70
2021/04/12 02:02:15;;;;;;;2.53;1.10;;;11.30;70.70;;;10.07;68.63;95775.41;4984372;28;20046;-70
2021/04/12 02:05:28;;;;;;;3.75;1.17;;;11.40;70.50;;;10.09;68.35;95782.09;4993731;28;20137;-70
2021/04/12 02:08:40;;;;;;;1.42;0.85;;;11.40;70.50;;;10.10;67.93;95775.00;4988686;28;20045;-70
2021/04/12 02:11:33;;;;;;;1.85;1.48;;;11.40;70.70;;;10.11;68.69;95780.06;4997136;28;20482;-70
2021/04/12 02:14:35;;;;;;;2.05;1.60;;;11.40;70.50;;;10.12;68.39;95778.25;5005669;28;20061;-69
2021/04/12 02:17:40;;;;;;;1.88;1.48;;;11.40;70.50;;;10.07;68.25;95775.41;4990842;28;20540;-69
2021/04/12 02:20:37;;;;;;;2.47;1.80;;;11.30;70.90;;;10.06;66.74;95779.03;5004384;28;21965;-70
2021/04/12 02:23:37;;;;;;;5.15;4.30;;;11.40;71.00;;;10.09;68.55;95786.53;4996156;28;20099;-69
2021/04/12 02:26:15;;;;;;;7.90;6.05;;;11.40;71.00;;;10.08;68.27;95788.34;5008860;28;20042;-70
2021/04/12 02:29:27;;;;;;;4.30;3.50;;;11.50;71.20;;;10.09;69.10;95794.41;5000832;28;20042;-70
2021/04/12 02:32:36;;;;;;;9.77;7.82;;;11.50;71.00;;;10.09;69.12;95795.22;5005737;28;20042;-70
2021/04/12 02:35:28;;;;;;;5.90;5.18;;;11.60;70.20;;;10.10;67.30;95798.66;4995047;28;20081;-70
2021/04/12 02:38:34;;;;;;;4.40;4.00;;;11.50;69.30;;;10.08;67.12;95795.41;5000187;28;20494;-70
2021/04/12 02:41:30;;;;;;;4.53;3.88;;;11.40;68.70;;;10.05;66.79;95796.63;5004614;28;20041;-70
2021/04/12 02:44:17;;;;;;;4.53;3.58;;;11.50;68.20;;;10.03;66.65;95792.56;5001883;28;20069;-69
2021/04/12 02:47:12;;;;;;;5.50;3.63;;;11.50;67.40;;;9.98;66.76;95802.84;4998646;28;20043;-70
2021/04/12 02:50:11;;;;;;;4.18;3.60;;;11.40;67.40;;;9.92;67.04;95803.59;5016148;28;20086;-70
2021/04/12 02:53:34;;;;;;;7.30;6.25;;;11.30;67.80;;;9.97;66.98;95806.47;5004934;28;20050;-71
2021/04/12 02:56:32;;;;;;;9.80;7.75;;;11.40;67.80;;;9.98;67.15;95808.09;4978592;28;20062;-69
2021/04/12 02:59:41;;;;;;;6.68;5.05;;;11.40;67.80;;;9.95;66.54;95792.69;4974580;28;20077;-70
2021/04/12 03:02:30;;;;;;;4.50;3.80;;;11.40;67.80;;;9.95;66.79;95809.25;4983498;28;20045;-70
2021/04/12 03:05:25;;;;;;;4.53;4.10;;;11.40;67.40;;;9.90;66.02;95806.41;5003963;28;20121;-69
2021/04/12 03:08:31;;;;;;;5.57;4.75;;;11.40;67.30;;;9.93;66.57;95820.97;4990912;28;20124;-70
2021/04/12 03:11:15;;;;;;;4.95;4.43;;;11.40;67.00;;;9.92;66.08;95825.41;5003931;28;20037;-69
2021/04/12 03:14:10;;;;;;;5.80;4.65;;;11.40;67.10;;;9.91;66.41;95828.25;5007953;28;20038;-69
2021/04/12 03:16:59;;;;;;;7.75;6.30;;;11.40;66.90;;;9.89;66.51;95827.63;4976338;28;20422;-70
2021/04/12 03:19:54;;;;;;;4.70;4.20;;;11.30;67.20;;;9.85;65.95;95829.81;4989037;28;20084;-69
2021/04/12 03:22:34;;;;;;;4.55;4.15;;;11.30;67.30;;;9.85;66.17;95831.63;4995604;28;20046;-70
2021/04/12 03:25:26;;;;;;;4.78;4.28;;;11.40;67.40;;;9.83;66.18;95842.34;4992064;28;20041;-69
2021/04/12 03:28:16;;;;;;;5.28;4.75;;;11.30;67.60;;;9.76;66.98;95842.28;4993104;28;20029;-69
2021/04/12 03:31:16;;;;;;;5.32;4.82;;;11.10;68.30;;;9.73;67.20;95847.94;5006573;28;20520;-69
2021/04/12 03:34:09;;;;;;;6.20;5.60;;;11.10;69.00;;;9.67;68.60;95848.66;5002128;28;20152;-69
2021/04/12 03:37:24;;;;;;;5.47;4.95;;;11.10;69.60;;;9.64;68.72;95851.66;5006289;28;20037;-69
2021/04/12 03:40:18;;;;;;;6.30;5.70;;;11.10;70.00;;;9.55;69.93;95860.69;5003480;28;20117;-69
2021/04/12 03:43:20;;;;;;;7.03;6.32;;;11.00;71.20;;;9.49;69.50;95872.72;4992835;28;20635;-69
2021/04/12 03:46:15;;;;;;;7.22;6.53;;;10.80;72.20;;;9.47;70.30;95871.31;5003135;28;20101;-68
2021/04/12 03:49:03;;;;;;;7.75;7.05;;;10.90;72.10;;;9.44;70.22;95869.06;5003684;28;20058;-69
2021/04/12 03:52:14;;;;;;;9.27;8.30;;;10.90;72.20;;;9.35;70.56;95870.19;5001084;28;20038;-68
2021/04/12 03:55:12;;;;;;;9.50;7.78;;;10.60;73.00;;;9.27;70.77;95878.16;5009511;28;20042;-69
2021/04/12 03:58:18;;;;;;;8.80;8.00;;;10.50;73.60;;;9.17;70.83;95879.28;4993730;28;20045;-68
2021/04/12 04:01:38;;;;;;;8.30;7.50;;;10.50;73.50;;;9.06;71.79;95887.66;4992462;28;20528;-70
2021/04/12 04:04:16;;;;;;;12.90;11.57;;;10.20;74.90;;;8.97;71.50;95887.94;5006502;28;20092;-67
2021/04/12 04:06:54;;;;;;;9.10;8.20;;;10.10;75.60;;;8.92;71.65;95891.09;4984535;28;20555;-67
2021/04/12 04:10:11;;;;;;;8.20;7.40;;;10.10;75.30;;;8.88;72.50;95895.09;5024535;28;20041;-68
2021/04/12 04:12:46;;;;;;;8.45;7.55;;;10.20;74.90;;;8.82;71.98;95895.81;4991878;28;20084;-69
2021/04/12 04:16:07;;;;;;;7.63;6.72;;;10.10;75.00;;;8.71;72.60;95898.91;5024301;28;20049;-70
2021/04/12 04:18:59;;;;;;;;;;;9.80;75.50;;;8.62;72.50;95897.38;4995599;28;20030;-70
2021/04/12 04:21:40;;;;;;;7.10;6.43;;;9.80;75.60;;;8.50;71.55;95897.81;5001144;28;19917;-70
2021/04/12 04:24:47;;;;;;;6.88;6.18;;;9.60;75.30;;;8.35;72.47;95915.34;5009088;28;20030;-69
2021/04/12 04:27:50;;;;;;;6.13;5.53;;;9.40;76.30;;;8.22;71.90;95920.38;5008402;28;20125;-70
2021/04/12 04:30:24;;;;;;;6.47;5.22;;;9.20;76.30;;;8.15;71.84;95915.03;5009150;28;20049;-70
2021/04/12 04:33:20;;;;;;;5.53;5.00;;;9.30;76.00;;;8.05;72.63;95917.06;5008719;28;20042;-70
2021/04/12 04:36:03;;;;;;;5.05;4.55;;;9.10;76.60;;;7.95;72.93;95930.44;5008313;28;20592;-69
2021/04/12 04:39:04;;;;;;;4.57;4.18;;;9.10;76.40;;;7.78;72.15;95941.19;5026303;28;20088;-70
2021/04/12 04:41:35;;;;;;;4.63;4.22;;;8.80;76.20;;;7.63;71.54;95956.84;5008455;28;20073;-69
2021/04/12 04:44:16;;;;;;;4.15;3.75;;;8.60;76.30;;;7.53;70.83;95958.88;5008424;28;20098;-70
2021/04/12 04:47:00;;;;;;;4.30;3.90;;;8.50;76.60;;;7.47;70.09;95968.25;4990676;28;20392;-70
2021/04/12 04:49:45;;;;;;;3.97;3.58;;;8.50;76.50;;;7.41;71.89;95973.34;5004727;28;20057;-70
2021/04/12 04:52:39;;;;;;;3.92;3.22;;;8.50;75.90;;;7.29;72.00;95981.59;5022531;28;20088;-70
2021/04/12 04:55:39;;;;;;;3.85;3.50;;;8.30;76.20;;;7.20;72.01;95993.06;5008715;28;20044;-69
2021/04/12 04:58:17;;;;;;;2.70;2.45;;;8.20;76.60;;;7.06;72.08;96001.63;4995598;28;20034;-70
2021/04/12 05:01:12;;;;;;;3.20;2.90;;;7.90;75.80;;;6.90;72.08;96007.72;5007413;28;20584;-70
2021/04/12 05:03:56;;;;;;;2.72;2.53;;;7.90;76.50;;;6.78;72.76;96014.28;4992437;28;20060;-69
2021/04/12 05:06:55;;;;;;;3.20;2.90;;;7.60;76.30;;;6.63;72.83;96026.44;5008339;28;20145;-68
2021/04/12 05:10:01;;;;;;;2.78;2.53;;;7.50;77.70;;;6.40;73.42;96034.13;5007846;28;20041;-68
2021/04/12 05:12:38;;;;;;;3.10;2.80;;;7.20;77.60;;;6.26;73.35;96043.44;5016563;28;20035;-68
2021/04/12 05:15:54;;;;;;;2.50;2.30;;;7.10;77.90;;;6.21;73.63;96031.84;5006820;28;20042;-67
2021/04/12 05:19:09;;;;;;;2.85;2.53;;;7.30;76.90;;;6.15;72.63;96049.00;5021070;28;20065;-66
2021/04/12 05:22:12;;;;;;;5.82;2.35;;;7.20;77.00;;;6.02;72.20;96064.31;5008147;28;20041;-69
2021/04/12 05:25:05;;;;;;;2.20;1.95;;;7.00;76.80;;;5.92;72.63;96085.34;5009121;28;20603;-70
2021/04/12 05:27:59;;;;;;;1.83;1.60;;;7.00;77.00;;;5.80;72.53;96103.06;4984138;28;20045;-68
2021/04/12 05:30:48;;;;;;;1.55;1.45;;;6.80;77.40;;;5.57;71.92;96119.47;5009790;28;20709;-78
2021/04/12 05:33:23;;;;;;;1.15;1.05;;;6.30;77.20;;;5.38;72.09;96126.56;4992569;28;20744;-68
2021/04/12 05:36:27;;;;;;;1.20;1.10;;;6.20;76.80;;;5.18;71.90;96130.34;5012622;28;20030;-69
2021/04/12 05:39:23;;;;;;;2.30;1.20;;;5.90;76.90;;;5.01;72.40;96136.47;4985266;28;20034;-70
2021/04/12 05:42:20;;;;;;;1.20;1.10;;;5.90;77.00;;;4.91;72.78;96142.56;5010658;28;20413;-70
2021/04/12 05:45:19;;;;;;;1.80;1.20;;;6.00;76.50;;;4.87;72.47;96156.06;5008665;28;20043;-71
2021/04/12 05:47:56;;;;;;;1.70;1.40;;;5.90;75.90;;;4.73;72.29;96159.22;5011508;28;20121;-70
2021/04/12 05:50:55;;;;;;;2.50;1.10;;;5.80;77.10;;;4.55;73.34;96172.28;4992593;28;20027;-74
2021/04/12 05:53:47;;;;;;;1.38;1.27;;;5.50;77.70;;;4.53;72.96;96176.81;5017280;28;20081;-71
2021/04/12 05:57:10;;;;;;;3.58;2.80;;;5.70;77.20;;;4.41;73.44;96172.78;4978481;28;20053;-65
2021/04/12 06:00:15;;;;;;;1.50;1.40;;;5.50;77.00;;;4.26;72.84;96191.53;5020726;28;20065;-67
2021/04/12 06:03:34;;;;;;;1.35;1.25;;;5.30;77.10;;;4.21;73.92;96191.16;5006459;28;20092;-72
2021/04/12 06:06:57;;;;;;;1.10;1.00;;;5.30;77.60;;;4.09;73.89;96189.75;4959682;28;20030;-64
2021/04/12 06:10:00;;;;;;;1.80;1.00;;;5.10;78.10;;;4.01;73.18;96200.03;5009591;28;20148;-67
2021/04/12 06:12:53;;;;;;;1.70;1.40;;;5.10;77.20;;;3.92;73.48;96206.13;5007402;28;20034;-69
2021/04/12 06:16:03;;;;;;;1.58;1.23;;;4.90;77.70;;;3.91;72.73;96201.91;5011208;28;20038;-70
2021/04/12 06:19:22;;;;;;;2.30;1.80;;;5.00;76.60;;;3.82;73.03;96210.56;5002865;28;20042;-68
2021/04/12 06:22:15;;;;;;;1.35;1.20;;;4.80;77.90;;;3.74;73.72;96223.47;4988464;28;20121;-66
2021/04/12 06:25:39;;;;;;;1.95;1.58;;;4.90;77.20;;;3.62;73.44;96221.06;5008460;28;20042;-67
2021/04/12 06:28:28;;;;;;;1.30;1.20;;;4.70;77.70;;;3.63;73.73;96217.50;4966279;28;20038;-68
2021/04/12 06:31:10;;;;;;;1.30;1.20;;;4.80;77.60;;;3.68;73.71;96225.69;5000410;28;20274;-68
2021/04/12 06:34:03;;;;;;;1.30;1.20;;;5.00;77.20;;;3.60;73.97;96228.16;5005841;28;20061;-67
2021/04/12 06:36:36;;;;;;;2.03;1.60;;;4.60;78.20;;;3.56;73.27;96232.00;5006605;28;20061;-70
2021/04/12 06:39:26;;;;;;;1.50;1.40;;;4.60;77.90;;;3.52;74.64;96232.44;4998064;28;20034;-69
2021/04/12 06:42:21;;;;;;;1.23;1.13;;;4.60;78.40;;;3.52;73.98;96243.66;5003217;28;20033;-68
2021/04/12 06:45:37;;;;;;;1.50;1.40;;;4.80;78.20;;;3.42;74.43;96260.28;4994200;28;20045;-69
2021/04/12 06:48:53;;;;;;;1.20;1.10;;;4.50;78.70;;;3.46;74.04;96272.03;4994562;28;20061;-69
2021/04/12 06:52:05;;;;;;;1.50;1.40;;;4.60;78.40;;;3.41;75.00;96279.44;5011685;28;20497;-69
2021/04/12 06:55:15;;;;;;;1.40;1.20;;;4.60;78.50;;;3.40;74.67;96307.22;5011920;28;20595;-68
2021/04/12 06:57:41;;;;;;;2.97;1.20;;;4.60;78.60;;;3.36;72.82;96326.63;5010644;28;20030;-68
2021/04/12 07:00:40;;;;;;;2.30;1.70;;;4.30;78.60;;;3.26;75.11;96331.84;5012231;28;20038;-69
2021/04/12 07:03:59;;;;;;;6.80;5.10;;;4.30;79.20;;;3.28;75.00;96344.72;5012913;28;20567;-69
2021/04/12 07:07:20;;;;;;;2.30;1.60;;;4.40;78.80;;;3.24;75.26;96335.56;5010507;28;20129;-69
2021/04/12 07:10:21;;;;;;;1.42;1.30;;;4.40;79.10;;;3.21;75.57;96330.63;5030741;28;20049;-67
2021/04/12 07:13:43;;;;;;;1.45;1.33;;;4.40;79.10;;;3.21;75.65;96341.03;5000716;28;20058;-68
2021/04/12 07:16:38;;;;;;;1.30;1.20;;;4.40;79.40;;;3.17;74.96;96355.22;4990077;28;20457;-70
2021/04/12 07:20:04;;;;;;;1.63;1.27;;;4.30;78.70;;;3.13;74.46;96353.88;5009764;28;20041;-67
2021/04/12 07:23:04;;;;;;;1.90;1.52;;;4.30;78.10;;;3.03;75.14;96378.09;5002692;28;20038;-67
2021/04/12 07:26:06;;;;;;;2.22;1.50;;;4.10;79.10;;;2.98;75.77;96382.88;4995470;28;20701;-69
2021/04/12 07:28:56;;;;;;;1.65;1.55;;;4.10;79.60;;;2.94;74.29;96389.31;5011380;28;20046;-68
2021/04/12 07:32:03;;;;;;;2.08;1.50;;;4.00;79.70;;;2.94;76.14;96397.09;4999382;28;20420;-68
2021/04/12 07:35:00;;;;;;;1.75;1.50;;;4.10;79.60;;;2.98;75.67;96403.66;5004749;28;20305;-70
2021/04/12 07:38:37;;;;;;;2.28;1.70;;;4.30;79.20;;;2.97;76.35;96416.78;5012280;28;20052;-69
2021/04/12 07:41:59;;;;;;;5.30;3.85;;;4.10;79.60;;;2.90;76.17;96424.28;4984461;28;20165;-72
2021/04/12 07:45:07;;;;;;;2.70;2.20;;;4.10;80.20;;;2.89;76.19;96440.81;5009572;28;20054;-66
2021/04/12 07:48:00;;;;;;;1.95;1.75;;;4.10;80.30;;;2.93;75.09;96444.78;5012701;28;20065;-64
2021/04/12 07:50:40;;;;;;;2.00;1.80;;;4.20;79.30;;;2.87;75.28;96447.94;5011884;28;20034;-70
2021/04/12 07:53:49;;;;;;;1.83;1.70;;;4.00;80.20;;;2.87;77.27;96453.13;5002415;28;20048;-71
2021/04/12 07:57:30;;;;;;;2.10;1.90;;;4.10;80.50;;;2.90;76.74;96463.25;5011759;28;20125;-67
2021/04/12 08:00:39;;;;;;;2.40;2.10;;;4.20;80.70;;;2.89;78.08;96460.78;4981941;28;20037;-66
2021/04/12 08:03:48;;;;;;;2.45;2.20;;;4.20;81.30;;;2.98;77.73;96471.22;5008713;28;20046;-66
2021/04/12 08:07:08;;;;;;;2.45;2.25;;;4.40;80.20;;;3.10;76.72;96465.91;5010952;28;20177;-65
2021/04/12 08:10:30;;;;;;;3.17;2.88;;;4.50;79.90;;;3.10;77.02;96473.69;5009177;28;20082;-71
2021/04/12 08:13:23;;;;;;;3.17;2.67;;;4.40;80.70;;;3.10;77.76;96481.50;5012682;28;20057;-68
2021/04/12 08:16:22;;;;;;;3.13;2.80;;;4.50;80.70;;;3.17;77.46;96482.59;5013401;28;20152;-70
2021/04/12 08:19:32;;;;;;;2.80;2.28;;;4.60;80.50;;;3.21;77.60;96476.19;5010863;28;20053;-70
2021/04/12 08:22:39;;;;;;;3.47;3.05;;;4.60;79.90;;;3.28;77.36;96480.72;4991523;28;20030;-72
2021/04/12 08:25:42;;;;;;;2.80;2.50;;;4.80;79.50;;;3.40;77.23;96496.22;5015553;28;20038;-70
2021/04/12 08:28:45;;;;;;;3.10;2.70;;;4.80;79.50;;;3.50;77.68;96497.84;4991119;28;20482;-70
2021/04/12 08:31:54;;;;;;;3.03;2.70;;;5.00;79.20;;;3.56;76.98;96497.31;4991745;28;20046;-70
2021/04/12 08:35:02;;;;;;;2.67;2.47;;;5.00;79.30;;;3.61;76.73;96520.28;4994524;28;20096;-73
2021/04/12 08:37:59;;;;;;;3.20;2.90;;;5.00;78.80;;;3.62;76.47;96516.75;5010638;28;20533;-70
2021/04/12 08:41:08;;;;;;;3.20;2.90;;;5.00;79.70;;;3.58;76.77;96521.41;5009315;28;20038;-66
2021/04/12 08:44:20;;;;;;;3.20;2.75;;;4.80;80.00;;;3.57;76.96;96524.13;5009172;28;20559;-71
2021/04/12 08:47:31;;;;;;;3.33;2.78;;;4.80;79.30;;;3.62;76.77;96537.56;5010572;28;20041;-70
2021/04/12 08:50:28;;;;;;;3.25;2.95;;;5.10;79.10;;;3.69;75.78;96536.06;5008397;28;20041;-68
2021/04/12 08:53:29;;;;;;;3.08;2.78;;;5.10;78.50;;;3.74;76.16;96546.06;5010366;28;20030;-70
2021/04/12 08:56:49;;;;;;;;;;;5.20;78.70;;;3.76;76.39;96549.34;4995542;28;20066;-69
2021/04/12 08:59:58;;;;;;;3.20;2.90;;;5.10;78.40;;;3.81;76.35;96561.00;4987634;28;19922;-70
2021/04/12 09:03:01;;;;;;;3.33;3.03;;;5.30;79.00;;;3.88;75.89;96554.31;5009568;28;20041;-73
2021/04/12 09:05:56;;;;;;;4.32;3.67;;;5.30;77.70;;;3.90;76.12;96559.38;5010012;28;20045;-66
2021/04/12 09:08:56;;;;;;;3.22;2.88;;;5.30;78.80;;;4.05;75.86;96565.78;4993490;28;20038;-67
2021/04/12 09:11:51;;;;;;;3.60;3.20;;;5.60;76.60;;;4.21;76.24;96570.47;5009471;28;20410;-70
2021/04/12 09:14:59;;;;;;;3.30;3.00;;;5.90;77.30;;;4.29;75.23;96573.19;4987015;28;20049;-70
2021/04/12 09:18:12;;;;;;;3.95;3.47;;;6.10;76.10;;;4.45;75.46;96577.84;5003748;28;20034;-67
2021/04/12 09:20:45;;;;;;;3.97;3.58;;;6.20;75.90;;;4.50;74.02;96591.25;5009960;28;20066;-69
2021/04/12 09:23:28;;;;;;;3.83;3.42;;;5.90;75.00;;;4.38;73.71;96592.38;4993083;28;20042;-69
2021/04/12 09:26:05;;;;;;;4.07;3.67;;;5.70;75.80;;;4.40;74.25;96595.66;4993365;28;20038;-69
2021/04/12 09:29:13;;;;;;;3.50;3.20;;;5.80;76.20;;;4.42;74.06;96604.97;5008182;28;20457;-68
2021/04/12 09:32:06;;;;;;;4.15;3.38;;;5.80;75.50;;;4.34;74.55;96606.66;5001553;28;20267;-69
2021/04/12 09:35:13;;;;;;;3.80;3.33;;;5.60;77.30;;;4.38;74.53;96619.25;5009279;28;20030;-66
2021/04/12 09:38:10;;;;;;;4.50;3.60;;;5.80;77.10;;;4.48;75.30;96614.84;5010102;28;20030;-67
2021/04/12 09:41:29;;;;;;;4.15;3.33;;;6.00;76.80;;;4.53;74.48;96622.28;4988440;28;20026;-67
2021/04/12 09:44:27;;;;;;;5.30;4.63;;;6.00;76.10;;;4.51;74.18;96624.16;5014649;28;20117;-68
2021/04/12 09:47:20;;;;;;;4.40;3.20;;;6.00;75.50;;;4.49;73.75;96631.28;5007468;28;20042;-68
2021/04/12 09:50:45;;;;;;;4.55;3.08;;;6.00;74.80;;;4.59;72.92;96634.72;5007965;28;20048;-68
2021/04/12 09:54:00;;;;;;;2.70;2.40;;;6.20;74.00;;;4.62;71.92;96637.06;5002766;28;20042;-67
2021/04/12 09:57:21;;;;;;;3.45;2.67;;;6.20;72.90;;;4.78;72.65;96652.97;4970477;28;20041;-74
2021/04/12 10:00:22;;;;;;;2.90;2.40;;;6.60;73.00;;;4.76;71.59;96644.47;5007246;28;20045;-68
2021/04/12 10:03:44;;;;;;;3.15;2.42;;;6.50;72.50;;;4.80;71.68;96651.03;4988484;28;20046;-69
2021/04/12 10:06:46;;;;;;;3.72;2.72;;;6.30;72.20;;;4.92;72.68;96668.13;4947478;28;20050;-69
2021/04/12 10:09:40;;;;;;;4.75;2.75;;;6.60;72.60;;;4.95;71.42;96668.81;4947534;28;20050;-66
2021/04/12 10:12:19;;;;;;;5.30;2.63;;;6.60;71.40;;;4.93;71.51;96661.97;5015720;28;20026;-76
2021/04/12 10:14:56;;;;;;;3.25;2.17;;;6.50;72.60;;;4.99;71.30;96665.00;5016195;28;20046;-73
2021/04/12 10:17:45;;;;;;;3.83;2.63;;;6.60;72.10;;;5.07;70.63;96668.53;4981424;28;20030;-72
2021/04/12 10:20:15;;;;;;;3.55;2.90;;;6.70;71.00;;;5.10;71.27;96652.59;4962487;28;20131;-73
2021/04/12 10:23:00;;;;;;;3.58;2.42;;;6.90;71.80;;;5.26;72.10;96667.66;4968974;28;20045;-73
2021/04/12 10:25:55;;;;;;;4.82;3.20;;;7.10;71.10;;;5.34;70.80;96665.16;5003512;28;20320;-71
2021/04/12 10:28:45;;;;;;;3.10;2.45;;;7.20;69.90;;;5.35;70.65;96669.41;5006756;28;20049;-73
2021/04/12 10:31:27;;;;;;;2.80;2.50;;;6.90;71.10;;;5.39;70.64;96667.34;4987187;28;20046;-67
2021/04/12 10:34:14;;;;;;;3.20;2.53;;;7.00;70.60;;;5.43;71.05;96671.28;4989585;28;20110;-67
2021/04/12 10:36:54;;;;;;;3.95;2.40;;;7.00;71.30;;;5.37;70.60;96675.31;5007002;28;20042;-77
2021/04/12 10:39:35;;;;;;;3.22;2.47;;;6.90;70.20;;;5.32;70.00;96682.75;4988627;28;20030;-76
2021/04/12 10:42:19;;;;;;;4.57;2.53;;;7.00;70.00;;;5.37;71.02;96688.34;4990508;28;20038;-66
2021/04/12 10:45:37;;;;;;;3.90;2.60;;;7.00;70.60;;;5.36;69.63;96684.09;5005535;28;20047;-66
2021/04/12 10:48:32;;;;;;;3.50;2.50;;;6.90;69.80;;;5.31;70.12;96693.31;5003796;28;20445;-67
2021/04/12 10:51:17;;;;;;;3.22;2.65;;;6.60;70.70;;;5.36;70.38;96694.53;5005207;28;20034;-67
2021/04/12 10:54:04;;;;;;;3.40;2.53;;;7.10;70.80;;;5.36;69.27;96693.72;5007817;28;20057;-67
2021/04/12 10:56:40;;;;;;;3.05;2.40;;;6.70;69.50;;;5.31;69.08;96696.75;5008105;28;20049;-67
2021/04/12 10:59:34;;;;;;;3.42;2.63;;;6.60;69.60;;;5.25;69.86;96691.28;4989932;28;20663;-68
2021/04/12 11:02:22;;;;;;;3.22;2.80;;;6.70;71.30;;;5.25;70.31;96699.09;5007368;28;20098;-67
2021/04/12 11:05:03;;;;;;;2.88;2.58;;;6.70;70.60;;;5.22;69.79;96698.44;5021750;28;20113;-70
2021/04/12 11:07:50;;;;;;;3.53;2.63;;;6.70;70.80;;;5.10;70.38;96702.16;5007669;28;20121;-67
2021/04/12 11:11:02;;;;;;;3.08;2.70;;;6.50;71.90;;;5.08;69.66;96703.25;5008017;28;20537;-68
2021/04/12 11:13:44;;;;;;;3.72;2.78;;;6.60;70.30;;;5.10;69.95;96706.53;5006186;28;20505;-67
2021/04/12 11:16:25;;;;;;;3.45;2.83;;;6.60;70.60;;;5.07;70.51;96715.47;5005173;28;20121;-69
2021/04/12 11:19:16;;;;;;;;;;;6.50;72.10;;;5.05;70.13;96716.56;4992059;28;20397;-70
2021/04/12 11:22:13;;;;;;;3.38;2.88;;;6.50;71.60;;;4.93;70.41;96710.66;5005432;28;20376;-69
2021/04/12 11:25:06;;;;;;;3.78;2.92;;;6.20;72.70;;;4.84;70.71;96719.34;4987780;28;20101;-68
2021/04/12 11:27:55;;;;;;;5.40;3.03;;;6.20;73.10;;;4.82;71.86;96713.44;5005911;28;20525;-67
2021/04/12 11:30:52;;;;;;;3.67;2.80;;;6.30;73.40;;;4.86;71.34;96717.41;4990860;28;20567;-68
2021/04/12 11:33:56;;;;;;;4.45;3.20;;;6.40;73.40;;;4.90;72.41;96724.81;4997503;28;20038;-69
2021/04/12 11:36:39;;;;;;;3.65;2.97;;;6.60;73.70;;;4.95;71.42;96726.19;5009769;28;20164;-70
2021/04/12 11:39:08;;;;;;;2.90;2.60;;;6.50;72.90;;;4.99;70.65;96732.78;5009999;28;20045;-70
2021/04/12 11:41:53;;;;;;;3.08;2.78;;;6.60;72.70;;;4.92;71.32;96735.91;4991537;28;20440;-70
2021/04/12 11:44:37;;;;;;;3.20;2.90;;;6.40;72.20;;;4.92;71.04;96738.53;5010097;28;20049;-70
2021/04/12 11:47:13;;;;;;;2.90;2.50;;;6.40;72.70;;;4.92;70.79;96748.13;4978547;28;20033;-68
2021/04/12 11:49:41;;;;;;;2.85;2.40;;;6.40;72.20;;;4.89;70.80;96749.22;5009615;28;20034;-70
2021/04/12 11:52:21;;;;;;;5.00;3.92;;;6.30;72.40;;;4.90;70.80;96750.88;5010711;28;20132;-68
2021/04/12 11:55:12;;;;;;;4.60;3.38;;;6.40;72.30;;;4.88;70.79;96758.00;5008250;28;20026;-69
2021/04/12 11:58:01;;;;;;;3.17;2.88;;;6.20;72.80;;;4.90;70.34;96763.09;5009088;28;20026;-68
2021/04/12 12:00:59;;;;;;;4.38;3.03;;;6.30;72.10;;;4.89;70.94;96758.84;5011015;28;20044;-68
2021/04/12 12:03:41;;;;;;;5.97;3.70;;;6.50;72.00;;;4.86;71.30;96761.72;5001633;28;20030;-67
2021/04/12 12:07:00;;;;;;;4.65;3.42;;;6.40;72.20;;;4.84;71.43;96764.47;5020871;28;20026;-67
2021/04/12 12:09:47;;;;;;;3.97;3.47;;;6.30;72.40;;;4.83;71.62;96764.59;5005806;28;20386;-71
2021/04/12 12:12:55;;;;;;;5.13;3.88;;;6.40;72.60;;;4.76;71.04;96769.56;5014809;28;20042;-69
2021/04/12 12:15:50;;;;;;;4.15;3.30;;;6.20;72.80;;;4.62;70.83;96772.53;4989604;28;20056;-69
2021/04/12 12:18:28;;;;;;;5.22;3.70;;;5.90;73.40;;;4.46;71.56;96780.06;4991567;28;20549;-68
2021/04/12 12:21:14;;;;;;;5.95;4.82;;;5.60;75.10;;;4.43;71.92;96782.94;4980891;28;20506;-68
2021/04/12 12:24:18;;;;;;;5.65;4.50;;;5.80;74.50;;;4.41;73.38;96784.84;4964649;28;20041;-69
2021/04/12 12:27:04;;;;;;;4.47;3.13;;;5.80;75.90;;;4.36;72.28;96774.84;5017581;28;20037;-72
2021/04/12 12:29:44;;;;;;;4.13;3.40;;;5.80;74.40;;;4.40;71.63;96778.00;5001979;28;20077;-69
2021/04/12 12:32:16;;;;;;;4.07;3.45;;;6.00;73.90;;;4.41;72.44;96784.84;5009005;28;20080;-70
2021/04/12 12:35:00;;;;;;;4.43;3.40;;;5.80;74.50;;;4.43;72.02;96793.34;5010536;28;20125;-69
2021/04/12 12:37:44;;;;;;;4.03;3.30;;;6.10;73.90;;;4.47;71.15;96794.72;5008495;28;20405;-69